sensor_id;sensor_type;location;lat;lon;timestamp;P1;durP1;ratioP1;P2;durP2;ratioP2
2748;SDS011;1382;52.142;11.618;2022-12-07T00:01:24;16.90;;;10.40;;
2748;SDS011;1382;52.142;11.618;2022-12-07T00:03:54;22.43;;;10.90;;
2748;SDS011;1382;52.142;11.618;2022-12-07T00:06:23;20.80;;;11.63;;
2748;SDS011;1382;52.142;11.618;2022-12-07T00:08:50;18.30;;;9.77;;
2748;SDS011;1382;52.142;11.618;2022-12-07T00:11:18;15.00;;;11.03;;
2748;SDS011;1382;52.142;11.618;2022-12-07T00:13:45;20.10;;;11.63;;
2748;SDS011;1382;52.142;11.618;2022-12-07T00:16:13;16.13;;;10.67;;
2748;SDS011;1382;52.142;11.618;2022-12-07T00:18:42;19.47;;;11.33;;
2748;SDS011;1382;52.142;11.618;2022-12-07T00:21:11;21.17;;;12.30;;
2748;SDS011;1382;52.142;11.618;2022-12-07T00:23:41;17.77;;;11.47;;
2748;SDS011;1382;52.142;11.618;2022-12-07T00:26:10;20.03;;;11.20;;
2748;SDS011;1382;52.142;11.618;2022-12-07T00:28:38;20.37;;;11.40;;
2748;SDS011;1382;52.142;11.618;2022-12-07T00:31:05;19.53;;;11.77;;
2748;SDS011;1382;52.142;11.618;2022-12-07T00:33:33;17.70;;;9.70;;
2748;SDS011;1382;52.142;11.618;2022-12-07T00:36:01;23.77;;;12.37;;
2748;SDS011;1382;52.142;11.618;2022-12-07T00:38:31;18.60;;;11.40;;
2748;SDS011;1382;52.142;11.618;2022-12-07T00:40:59;18.97;;;10.83;;
2748;SDS011;1382;52.142;11.618;2022-12-07T00:43:28;17.40;;;10.70;;
2748;SDS011;1382;52.142;11.618;2022-12-07T00:45:55;18.70;;;11.50;;
2748;SDS011;1382;52.142;11.618;2022-12-07T00:48:23;19.17;;;11.10;;
2748;SDS011;1382;52.142;11.618;2022-12-07T00:50:50;18.40;;;10.57;;
2748;SDS011;1382;52.142;11.618;2022-12-07T00:53:17;16.03;;;10.70;;
2748;SDS011;1382;52.142;11.618;2022-12-07T00:55:45;16.73;;;9.53;;
2748;SDS011;1382;52.142;11.618;2022-12-07T00:58:12;15.60;;;9.13;;
2748;SDS011;1382;52.142;11.618;2022-12-07T01:00:40;16.20;;;9.73;;
2748;SDS011;1382;52.142;11.618;2022-12-07T01:03:09;17.17;;;10.97;;
2748;SDS011;1382;52.142;11.618;2022-12-07T01:05:37;20.93;;;11.83;;
2748;SDS011;1382;52.142;11.618;2022-12-07T01:08:04;19.67;;;10.10;;
2748;SDS011;1382;52.142;11.618;2022-12-07T01:10:32;19.37;;;11.30;;
2748;SDS011;1382;52.142;11.618;2022-12-07T01:13:00;18.83;;;11.23;;
2748;SDS011;1382;52.142;11.618;2022-12-07T01:15:27;19.03;;;10.70;;
2748;SDS011;1382;52.142;11.618;2022-12-07T01:17:53;18.07;;;10.17;;
2748;SDS011;1382;52.142;11.618;2022-12-07T01:20:20;16.87;;;10.70;;
2748;SDS011;1382;52.142;11.618;2022-12-07T01:22:47;15.53;;;10.33;;
2748;SDS011;1382;52.142;11.618;2022-12-07T01:25:14;16.70;;;10.40;;
2748;SDS011;1382;52.142;11.618;2022-12-07T01:27:41;17.00;;;9.70;;
2748;SDS011;1382;52.142;11.618;2022-12-07T01:30:11;16.40;;;11.53;;
2748;SDS011;1382;52.142;11.618;2022-12-07T01:32:38;20.80;;;11.00;;
2748;SDS011;1382;52.142;11.618;2022-12-07T01:35:05;16.90;;;10.90;;
2748;SDS011;1382;52.142;11.618;2022-12-07T01:37:33;20.10;;;12.80;;
2748;SDS011;1382;52.142;11.618;2022-12-07T01:40:01;22.77;;;11.83;;
2748;SDS011;1382;52.142;11.618;2022-12-07T01:42:29;16.23;;;10.43;;
2748;SDS011;1382;52.142;11.618;2022-12-07T01:45:25;16.60;;;11.00;;
2748;SDS011;1382;52.142;11.618;2022-12-07T01:48:03;20.10;;;11.30;;
2748;SDS011;1382;52.142;11.618;2022-12-07T01:50:31;16.17;;;11.83;;
2748;SDS011;1382;52.142;11.618;2022-12-07T01:52:59;15.90;;;10.57;;
2748;SDS011;1382;52.142;11.618;2022-12-07T01:55:29;16.23;;;10.80;;
2748;SDS011;1382;52.142;11.618;2022-12-07T01:57:56;16.93;;;9.77;;
2748;SDS011;1382;52.142;11.618;2022-12-07T02:00:25;15.83;;;10.70;;
2748;SDS011;1382;52.142;11.618;2022-12-07T02:02:53;14.00;;;9.40;;
2748;SDS011;1382;52.142;11.618;2022-12-07T02:05:24;19.07;;;11.03;;
2748;SDS011;1382;52.142;11.618;2022-12-07T02:07:52;12.83;;;8.87;;
2748;SDS011;1382;52.142;11.618;2022-12-07T02:10:21;15.47;;;10.17;;
2748;SDS011;1382;52.142;11.618;2022-12-07T02:12:50;17.50;;;10.70;;
2748;SDS011;1382;52.142;11.618;2022-12-07T02:15:19;18.07;;;11.90;;
2748;SDS011;1382;52.142;11.618;2022-12-07T02:17:51;15.57;;;11.03;;
2748;SDS011;1382;52.142;11.618;2022-12-07T02:20:28;16.33;;;10.87;;
2748;SDS011;1382;52.142;11.618;2022-12-07T02:23:11;18.83;;;10.70;;
2748;SDS011;1382;52.142;11.618;2022-12-07T02:26:02;19.13;;;12.33;;
2748;SDS011;1382;52.142;11.618;2022-12-07T02:28:56;15.30;;;9.93;;
2748;SDS011;1382;52.142;11.618;2022-12-07T02:31:33;18.27;;;13.27;;
2748;SDS011;1382;52.142;11.618;2022-12-07T02:34:05;17.33;;;11.67;;
2748;SDS011;1382;52.142;11.618;2022-12-07T02:36:38;19.40;;;11.87;;
2748;SDS011;1382;52.142;11.618;2022-12-07T02:39:08;17.50;;;11.83;;
2748;SDS011;1382;52.142;11.618;2022-12-07T02:41:42;20.20;;;11.97;;
2748;SDS011;1382;52.142;11.618;2022-12-07T02:44:14;18.97;;;10.90;;
2748;SDS011;1382;52.142;11.618;2022-12-07T02:46:44;20.00;;;12.13;;
2748;SDS011;1382;52.142;11.618;2022-12-07T02:49:15;20.07;;;11.73;;
2748;SDS011;1382;52.142;11.618;2022-12-07T02:51:44;21.17;;;12.77;;
2748;SDS011;1382;52.142;11.618;2022-12-07T02:54:13;22.70;;;11.73;;
2748;SDS011;1382;52.142;11.618;2022-12-07T02:56:43;23.10;;;13.57;;
2748;SDS011;1382;52.142;11.618;2022-12-07T02:59:17;20.40;;;13.30;;
2748;SDS011;1382;52.142;11.618;2022-12-07T03:01:56;19.67;;;12.23;;
2748;SDS011;1382;52.142;11.618;2022-12-07T03:04:35;25.43;;;12.23;;
2748;SDS011;1382;52.142;11.618;2022-12-07T03:07:11;20.60;;;11.30;;
2748;SDS011;1382;52.142;11.618;2022-12-07T03:09:45;18.90;;;12.83;;
2748;SDS011;1382;52.142;11.618;2022-12-07T03:12:20;21.90;;;13.07;;
2748;SDS011;1382;52.142;11.618;2022-12-07T03:14:55;17.70;;;11.50;;
2748;SDS011;1382;52.142;11.618;2022-12-07T03:17:27;20.50;;;13.57;;
2748;SDS011;1382;52.142;11.618;2022-12-07T03:20:00;22.70;;;13.47;;
2748;SDS011;1382;52.142;11.618;2022-12-07T03:22:32;21.43;;;13.13;;
2748;SDS011;1382;52.142;11.618;2022-12-07T03:25:03;25.60;;;13.40;;
2748;SDS011;1382;52.142;11.618;2022-12-07T03:27:33;19.70;;;12.10;;
2748;SDS011;1382;52.142;11.618;2022-12-07T03:30:05;20.60;;;12.17;;
2748;SDS011;1382;52.142;11.618;2022-12-07T03:32:36;19.43;;;13.17;;
2748;SDS011;1382;52.142;11.618;2022-12-07T03:35:07;18.33;;;10.40;;
2748;SDS011;1382;52.142;11.618;2022-12-07T03:37:39;22.80;;;14.03;;
2748;SDS011;1382;52.142;11.618;2022-12-07T03:40:12;17.67;;;10.77;;
2748;SDS011;1382;52.142;11.618;2022-12-07T03:42:42;19.27;;;10.90;;
2748;SDS011;1382;52.142;11.618;2022-12-07T03:45:11;23.70;;;13.97;;
2748;SDS011;1382;52.142;11.618;2022-12-07T03:47:41;22.10;;;12.03;;
2748;SDS011;1382;52.142;11.618;2022-12-07T03:50:13;19.07;;;11.87;;
2748;SDS011;1382;52.142;11.618;2022-12-07T03:52:44;20.23;;;12.20;;
2748;SDS011;1382;52.142;11.618;2022-12-07T03:55:14;18.93;;;11.67;;
2748;SDS011;1382;52.142;11.618;2022-12-07T03:57:47;16.90;;;11.03;;
2748;SDS011;1382;52.142;11.618;2022-12-07T04:00:19;17.97;;;11.37;;
2748;SDS011;1382;52.142;11.618;2022-12-07T04:02:46;20.47;;;14.57;;
2748;SDS011;1382;52.142;11.618;2022-12-07T04:05:13;17.50;;;12.03;;
2748;SDS011;1382;52.142;11.618;2022-12-07T04:07:40;19.13;;;13.63;;
2748;SDS011;1382;52.142;11.618;2022-12-07T04:10:07;18.87;;;12.80;;
2748;SDS011;1382;52.142;11.618;2022-12-07T04:12:35;19.70;;;13.70;;
2748;SDS011;1382;52.142;11.618;2022-12-07T04:15:02;19.60;;;11.10;;
2748;SDS011;1382;52.142;11.618;2022-12-07T04:17:30;18.10;;;12.87;;
2748;SDS011;1382;52.142;11.618;2022-12-07T04:19:57;21.10;;;13.90;;
2748;SDS011;1382;52.142;11.618;2022-12-07T04:22:24;18.17;;;13.53;;
2748;SDS011;1382;52.142;11.618;2022-12-07T04:24:51;19.57;;;13.60;;
2748;SDS011;1382;52.142;11.618;2022-12-07T04:27:18;21.00;;;15.20;;
2748;SDS011;1382;52.142;11.618;2022-12-07T04:29:44;20.23;;;14.47;;
2748;SDS011;1382;52.142;11.618;2022-12-07T04:32:11;19.13;;;13.80;;
2748;SDS011;1382;52.142;11.618;2022-12-07T04:34:40;21.40;;;14.77;;
2748;SDS011;1382;52.142;11.618;2022-12-07T04:37:06;19.97;;;15.80;;
2748;SDS011;1382;52.142;11.618;2022-12-07T04:39:33;18.87;;;14.00;;
2748;SDS011;1382;52.142;11.618;2022-12-07T04:42:00;21.87;;;14.57;;
2748;SDS011;1382;52.142;11.618;2022-12-07T04:44:28;22.20;;;16.43;;
2748;SDS011;1382;52.142;11.618;2022-12-07T04:46:55;20.53;;;15.00;;
2748;SDS011;1382;52.142;11.618;2022-12-07T04:49:23;18.77;;;13.40;;
2748;SDS011;1382;52.142;11.618;2022-12-07T04:51:51;19.50;;;12.63;;
2748;SDS011;1382;52.142;11.618;2022-12-07T04:54:18;20.43;;;14.97;;
2748;SDS011;1382;52.142;11.618;2022-12-07T04:56:45;18.40;;;13.47;;
2748;SDS011;1382;52.142;11.618;2022-12-07T04:59:13;22.03;;;14.10;;
2748;SDS011;1382;52.142;11.618;2022-12-07T05:01:40;20.07;;;12.63;;
2748;SDS011;1382;52.142;11.618;2022-12-07T05:04:07;19.07;;;12.93;;
2748;SDS011;1382;52.142;11.618;2022-12-07T05:06:35;16.57;;;12.67;;
2748;SDS011;1382;52.142;11.618;2022-12-07T05:09:03;18.03;;;13.60;;
2748;SDS011;1382;52.142;11.618;2022-12-07T05:11:30;21.70;;;14.40;;
2748;SDS011;1382;52.142;11.618;2022-12-07T05:13:57;16.50;;;14.30;;
2748;SDS011;1382;52.142;11.618;2022-12-07T05:16:24;18.60;;;13.30;;
2748;SDS011;1382;52.142;11.618;2022-12-07T05:18:51;18.80;;;13.80;;
2748;SDS011;1382;52.142;11.618;2022-12-07T05:21:18;20.73;;;13.17;;
2748;SDS011;1382;52.142;11.618;2022-12-07T05:23:45;20.70;;;14.33;;
2748;SDS011;1382;52.142;11.618;2022-12-07T05:26:13;20.20;;;14.30;;
2748;SDS011;1382;52.142;11.618;2022-12-07T05:28:40;20.03;;;14.53;;
2748;SDS011;1382;52.142;11.618;2022-12-07T05:31:07;20.50;;;14.70;;
2748;SDS011;1382;52.142;11.618;2022-12-07T05:33:34;20.13;;;13.40;;
2748;SDS011;1382;52.142;11.618;2022-12-07T05:36:01;16.13;;;11.50;;
2748;SDS011;1382;52.142;11.618;2022-12-07T05:38:28;19.43;;;13.60;;
2748;SDS011;1382;52.142;11.618;2022-12-07T05:40:55;19.07;;;12.40;;
2748;SDS011;1382;52.142;11.618;2022-12-07T05:43:27;20.93;;;13.67;;
2748;SDS011;1382;52.142;11.618;2022-12-07T05:45:53;20.83;;;14.73;;
2748;SDS011;1382;52.142;11.618;2022-12-07T05:48:20;24.73;;;14.07;;
2748;SDS011;1382;52.142;11.618;2022-12-07T05:50:47;16.53;;;12.80;;
2748;SDS011;1382;52.142;11.618;2022-12-07T05:53:14;16.73;;;12.60;;
2748;SDS011;1382;52.142;11.618;2022-12-07T05:55:48;21.87;;;13.57;;
2748;SDS011;1382;52.142;11.618;2022-12-07T05:58:15;20.40;;;14.40;;
2748;SDS011;1382;52.142;11.618;2022-12-07T06:00:43;18.77;;;13.30;;
2748;SDS011;1382;52.142;11.618;2022-12-07T06:03:16;18.33;;;11.97;;
2748;SDS011;1382;52.142;11.618;2022-12-07T06:05:43;17.97;;;12.30;;
2748;SDS011;1382;52.142;11.618;2022-12-07T06:08:10;19.70;;;14.23;;
2748;SDS011;1382;52.142;11.618;2022-12-07T06:10:37;23.43;;;14.13;;
2748;SDS011;1382;52.142;11.618;2022-12-07T06:13:04;20.37;;;13.37;;
2748;SDS011;1382;52.142;11.618;2022-12-07T06:15:30;23.20;;;13.73;;
2748;SDS011;1382;52.142;11.618;2022-12-07T06:17:59;19.07;;;14.60;;
2748;SDS011;1382;52.142;11.618;2022-12-07T06:20:26;21.70;;;13.37;;
2748;SDS011;1382;52.142;11.618;2022-12-07T06:22:53;18.40;;;12.00;;
2748;SDS011;1382;52.142;11.618;2022-12-07T06:25:19;19.37;;;14.00;;
2748;SDS011;1382;52.142;11.618;2022-12-07T06:27:46;17.40;;;12.27;;
2748;SDS011;1382;52.142;11.618;2022-12-07T06:30:13;18.17;;;11.13;;
2748;SDS011;1382;52.142;11.618;2022-12-07T06:32:40;18.90;;;12.33;;
2748;SDS011;1382;52.142;11.618;2022-12-07T06:35:08;16.20;;;11.97;;
2748;SDS011;1382;52.142;11.618;2022-12-07T06:37:35;19.80;;;10.73;;
2748;SDS011;1382;52.142;11.618;2022-12-07T06:40:02;14.97;;;10.20;;
2748;SDS011;1382;52.142;11.618;2022-12-07T06:42:30;15.50;;;9.33;;
2748;SDS011;1382;52.142;11.618;2022-12-07T06:44:57;17.80;;;10.40;;
2748;SDS011;1382;52.142;11.618;2022-12-07T06:47:24;17.03;;;8.07;;
2748;SDS011;1382;52.142;11.618;2022-12-07T06:50:06;14.30;;;7.43;;
2748;SDS011;1382;52.142;11.618;2022-12-07T06:52:35;12.00;;;8.67;;
2748;SDS011;1382;52.142;11.618;2022-12-07T06:55:02;11.10;;;7.30;;
2748;SDS011;1382;52.142;11.618;2022-12-07T06:57:29;11.20;;;7.90;;
2748;SDS011;1382;52.142;11.618;2022-12-07T06:59:56;14.53;;;6.50;;
2748;SDS011;1382;52.142;11.618;2022-12-07T07:02:22;12.83;;;7.40;;
2748;SDS011;1382;52.142;11.618;2022-12-07T07:04:49;11.90;;;7.23;;
2748;SDS011;1382;52.142;11.618;2022-12-07T07:07:17;12.40;;;6.73;;
2748;SDS011;1382;52.142;11.618;2022-12-07T07:09:44;16.30;;;7.30;;
2748;SDS011;1382;52.142;11.618;2022-12-07T07:12:11;11.13;;;7.53;;
2748;SDS011;1382;52.142;11.618;2022-12-07T07:14:38;9.33;;;7.20;;
2748;SDS011;1382;52.142;11.618;2022-12-07T07:17:05;13.03;;;8.53;;
2748;SDS011;1382;52.142;11.618;2022-12-07T07:19:32;12.40;;;7.53;;
2748;SDS011;1382;52.142;11.618;2022-12-07T07:21:59;12.77;;;6.60;;
2748;SDS011;1382;52.142;11.618;2022-12-07T07:24:27;10.87;;;6.77;;
2748;SDS011;1382;52.142;11.618;2022-12-07T07:26:54;10.87;;;6.77;;
2748;SDS011;1382;52.142;11.618;2022-12-07T07:29:21;10.17;;;6.70;;
2748;SDS011;1382;52.142;11.618;2022-12-07T07:31:47;8.90;;;5.77;;
2748;SDS011;1382;52.142;11.618;2022-12-07T07:34:14;11.27;;;7.00;;
2748;SDS011;1382;52.142;11.618;2022-12-07T07:36:41;7.60;;;5.60;;
2748;SDS011;1382;52.142;11.618;2022-12-07T07:39:09;9.50;;;6.40;;
2748;SDS011;1382;52.142;11.618;2022-12-07T07:41:37;20.40;;;7.37;;
2748;SDS011;1382;52.142;11.618;2022-12-07T07:44:04;8.13;;;6.33;;
2748;SDS011;1382;52.142;11.618;2022-12-07T07:46:31;9.10;;;6.53;;
2748;SDS011;1382;52.142;11.618;2022-12-07T07:48:58;8.37;;;5.97;;
2748;SDS011;1382;52.142;11.618;2022-12-07T07:51:24;11.90;;;7.70;;
2748;SDS011;1382;52.142;11.618;2022-12-07T07:53:51;13.60;;;7.20;;
2748;SDS011;1382;52.142;11.618;2022-12-07T07:56:18;9.80;;;6.50;;
2748;SDS011;1382;52.142;11.618;2022-12-07T07:58:46;10.23;;;6.20;;
2748;SDS011;1382;52.142;11.618;2022-12-07T08:01:13;10.00;;;6.83;;
2748;SDS011;1382;52.142;11.618;2022-12-07T08:03:40;9.10;;;6.20;;
2748;SDS011;1382;52.142;11.618;2022-12-07T08:06:06;11.90;;;6.93;;
2748;SDS011;1382;52.142;11.618;2022-12-07T08:08:33;8.17;;;5.40;;
2748;SDS011;1382;52.142;11.618;2022-12-07T08:11:00;9.83;;;7.00;;
2748;SDS011;1382;52.142;11.618;2022-12-07T08:13:27;11.90;;;6.63;;
2748;SDS011;1382;52.142;11.618;2022-12-07T08:15:58;7.70;;;5.73;;
2748;SDS011;1382;52.142;11.618;2022-12-07T08:18:29;15.80;;;7.50;;
2748;SDS011;1382;52.142;11.618;2022-12-07T08:20:58;9.40;;;6.17;;
2748;SDS011;1382;52.142;11.618;2022-12-07T08:23:25;8.63;;;6.33;;
2748;SDS011;1382;52.142;11.618;2022-12-07T08:26:04;12.40;;;8.23;;
2748;SDS011;1382;52.142;11.618;2022-12-07T08:28:32;11.53;;;7.90;;
2748;SDS011;1382;52.142;11.618;2022-12-07T08:31:01;15.33;;;7.73;;
2748;SDS011;1382;52.142;11.618;2022-12-07T08:33:29;12.13;;;8.37;;
2748;SDS011;1382;52.142;11.618;2022-12-07T08:35:59;18.07;;;7.40;;
2748;SDS011;1382;52.142;11.618;2022-12-07T08:38:26;15.10;;;8.23;;
2748;SDS011;1382;52.142;11.618;2022-12-07T08:40:57;10.60;;;7.53;;
2748;SDS011;1382;52.142;11.618;2022-12-07T08:43:24;12.97;;;8.77;;
2748;SDS011;1382;52.142;11.618;2022-12-07T08:45:53;12.87;;;7.40;;
2748;SDS011;1382;52.142;11.618;2022-12-07T08:48:28;14.00;;;8.57;;
2748;SDS011;1382;52.142;11.618;2022-12-07T08:50:57;11.70;;;7.70;;
2748;SDS011;1382;52.142;11.618;2022-12-07T08:53:23;10.47;;;7.03;;
2748;SDS011;1382;52.142;11.618;2022-12-07T08:55:51;12.30;;;7.47;;
2748;SDS011;1382;52.142;11.618;2022-12-07T08:58:18;6.17;;;4.10;;
2748;SDS011;1382;52.142;11.618;2022-12-07T09:00:44;9.60;;;4.77;;
2748;SDS011;1382;52.142;11.618;2022-12-07T09:03:11;6.53;;;3.47;;
2748;SDS011;1382;52.142;11.618;2022-12-07T09:05:39;5.90;;;3.83;;
2748;SDS011;1382;52.142;11.618;2022-12-07T09:08:06;6.50;;;3.60;;
2748;SDS011;1382;52.142;11.618;2022-12-07T09:10:34;6.00;;;3.97;;
2748;SDS011;1382;52.142;11.618;2022-12-07T09:13:00;4.50;;;3.33;;
2748;SDS011;1382;52.142;11.618;2022-12-07T09:15:27;6.57;;;4.47;;
2748;SDS011;1382;52.142;11.618;2022-12-07T09:17:54;5.23;;;3.67;;
2748;SDS011;1382;52.142;11.618;2022-12-07T09:20:21;11.50;;;4.10;;
2748;SDS011;1382;52.142;11.618;2022-12-07T09:22:54;5.43;;;3.60;;
2748;SDS011;1382;52.142;11.618;2022-12-07T09:25:21;6.50;;;4.00;;
2748;SDS011;1382;52.142;11.618;2022-12-07T09:27:48;9.90;;;4.43;;
2748;SDS011;1382;52.142;11.618;2022-12-07T09:30:22;8.43;;;4.80;;
2748;SDS011;1382;52.142;11.618;2022-12-07T09:32:49;6.60;;;4.20;;
2748;SDS011;1382;52.142;11.618;2022-12-07T09:35:15;6.93;;;4.43;;
2748;SDS011;1382;52.142;11.618;2022-12-07T09:37:42;4.90;;;4.00;;
2748;SDS011;1382;52.142;11.618;2022-12-07T09:40:11;8.83;;;3.93;;
2748;SDS011;1382;52.142;11.618;2022-12-07T09:42:39;5.03;;;3.70;;
2748;SDS011;1382;52.142;11.618;2022-12-07T09:45:11;6.33;;;4.00;;
2748;SDS011;1382;52.142;11.618;2022-12-07T09:47:40;4.00;;;3.33;;
2748;SDS011;1382;52.142;11.618;2022-12-07T09:50:10;8.20;;;3.87;;
2748;SDS011;1382;52.142;11.618;2022-12-07T09:52:41;4.77;;;3.90;;
2748;SDS011;1382;52.142;11.618;2022-12-07T09:55:12;6.17;;;4.47;;
2748;SDS011;1382;52.142;11.618;2022-12-07T09:57:40;7.07;;;4.27;;
2748;SDS011;1382;52.142;11.618;2022-12-07T10:00:11;5.70;;;4.13;;
2748;SDS011;1382;52.142;11.618;2022-12-07T10:02:41;5.30;;;4.13;;
2748;SDS011;1382;52.142;11.618;2022-12-07T10:05:11;7.00;;;4.40;;
2748;SDS011;1382;52.142;11.618;2022-12-07T10:07:48;9.60;;;4.70;;
2748;SDS011;1382;52.142;11.618;2022-12-07T10:10:17;8.33;;;5.40;;
2748;SDS011;1382;52.142;11.618;2022-12-07T10:12:52;13.20;;;4.80;;
2748;SDS011;1382;52.142;11.618;2022-12-07T10:15:21;8.00;;;4.67;;
2748;SDS011;1382;52.142;11.618;2022-12-07T10:17:48;12.07;;;5.67;;
2748;SDS011;1382;52.142;11.618;2022-12-07T10:20:23;6.63;;;3.63;;
2748;SDS011;1382;52.142;11.618;2022-12-07T10:22:55;10.77;;;5.17;;
2748;SDS011;1382;52.142;11.618;2022-12-07T10:25:28;7.40;;;4.60;;
2748;SDS011;1382;52.142;11.618;2022-12-07T10:27:57;10.37;;;4.63;;
2748;SDS011;1382;52.142;11.618;2022-12-07T10:30:25;9.50;;;3.50;;
2748;SDS011;1382;52.142;11.618;2022-12-07T10:32:52;8.20;;;4.50;;
2748;SDS011;1382;52.142;11.618;2022-12-07T10:35:23;5.03;;;4.50;;
2748;SDS011;1382;52.142;11.618;2022-12-07T10:37:51;7.00;;;4.40;;
2748;SDS011;1382;52.142;11.618;2022-12-07T10:40:31;4.60;;;3.70;;
2748;SDS011;1382;52.142;11.618;2022-12-07T10:43:00;10.43;;;3.53;;
2748;SDS011;1382;52.142;11.618;2022-12-07T10:45:32;7.47;;;3.70;;
2748;SDS011;1382;52.142;11.618;2022-12-07T10:48:08;4.53;;;3.43;;
2748;SDS011;1382;52.142;11.618;2022-12-07T10:50:46;12.33;;;4.10;;
2748;SDS011;1382;52.142;11.618;2022-12-07T10:53:27;6.13;;;3.47;;
2748;SDS011;1382;52.142;11.618;2022-12-07T10:56:09;7.60;;;3.97;;
2748;SDS011;1382;52.142;11.618;2022-12-07T10:59:01;7.03;;;3.60;;
2748;SDS011;1382;52.142;11.618;2022-12-07T11:01:42;4.97;;;3.37;;
2748;SDS011;1382;52.142;11.618;2022-12-07T11:04:18;6.70;;;3.17;;
2748;SDS011;1382;52.142;11.618;2022-12-07T11:06:51;9.00;;;3.40;;
2748;SDS011;1382;52.142;11.618;2022-12-07T11:09:29;3.27;;;2.43;;
2748;SDS011;1382;52.142;11.618;2022-12-07T11:12:38;6.17;;;3.30;;
2748;SDS011;1382;52.142;11.618;2022-12-07T11:15:13;8.33;;;3.83;;
2748;SDS011;1382;52.142;11.618;2022-12-07T11:17:48;3.43;;;2.70;;
2748;SDS011;1382;52.142;11.618;2022-12-07T11:20:27;6.43;;;3.17;;
2748;SDS011;1382;52.142;11.618;2022-12-07T11:23:03;3.90;;;3.43;;
2748;SDS011;1382;52.142;11.618;2022-12-07T11:25:42;7.17;;;2.80;;
2748;SDS011;1382;52.142;11.618;2022-12-07T11:28:20;4.13;;;2.87;;
2748;SDS011;1382;52.142;11.618;2022-12-07T11:30:57;5.37;;;3.10;;
2748;SDS011;1382;52.142;11.618;2022-12-07T11:33:33;5.83;;;4.23;;
2748;SDS011;1382;52.142;11.618;2022-12-07T11:36:11;5.20;;;3.93;;
2748;SDS011;1382;52.142;11.618;2022-12-07T11:38:54;5.63;;;3.70;;
2748;SDS011;1382;52.142;11.618;2022-12-07T11:41:24;5.80;;;3.83;;
2748;SDS011;1382;52.142;11.618;2022-12-07T11:43:58;5.33;;;4.40;;
2748;SDS011;1382;52.142;11.618;2022-12-07T11:46:29;4.27;;;3.13;;
2748;SDS011;1382;52.142;11.618;2022-12-07T11:49:12;8.30;;;3.60;;
2748;SDS011;1382;52.142;11.618;2022-12-07T11:51:42;5.33;;;3.50;;
2748;SDS011;1382;52.142;11.618;2022-12-07T11:54:11;8.90;;;4.70;;
2748;SDS011;1382;52.142;11.618;2022-12-07T11:56:42;7.93;;;2.40;;
2748;SDS011;1382;52.142;11.618;2022-12-07T11:59:13;4.33;;;3.33;;
2748;SDS011;1382;52.142;11.618;2022-12-07T12:01:50;5.70;;;3.17;;
2748;SDS011;1382;52.142;11.618;2022-12-07T12:04:31;6.60;;;2.20;;
2748;SDS011;1382;52.142;11.618;2022-12-07T12:07:05;4.03;;;2.90;;
2748;SDS011;1382;52.142;11.618;2022-12-07T12:09:53;4.50;;;2.63;;
2748;SDS011;1382;52.142;11.618;2022-12-07T12:12:45;2.93;;;2.37;;
2748;SDS011;1382;52.142;11.618;2022-12-07T12:16:02;5.83;;;1.83;;
2748;SDS011;1382;52.142;11.618;2022-12-07T12:19:11;2.40;;;1.80;;
2748;SDS011;1382;52.142;11.618;2022-12-07T12:21:48;2.30;;;1.43;;
2748;SDS011;1382;52.142;11.618;2022-12-07T12:24:39;2.73;;;1.53;;
2748;SDS011;1382;52.142;11.618;2022-12-07T12:27:08;6.70;;;2.40;;
2748;SDS011;1382;52.142;11.618;2022-12-07T12:29:52;5.40;;;1.77;;
2748;SDS011;1382;52.142;11.618;2022-12-07T12:32:40;8.93;;;2.30;;
2748;SDS011;1382;52.142;11.618;2022-12-07T12:35:28;6.43;;;1.70;;
2748;SDS011;1382;52.142;11.618;2022-12-07T12:38:25;5.00;;;1.77;;
2748;SDS011;1382;52.142;11.618;2022-12-07T12:50:41;4.73;;;2.33;;
2748;SDS011;1382;52.142;11.618;2022-12-07T12:53:20;4.90;;;2.20;;
2748;SDS011;1382;52.142;11.618;2022-12-07T12:55:54;10.43;;;1.60;;
2748;SDS011;1382;52.142;11.618;2022-12-07T13:01:50;3.90;;;1.93;;
2748;SDS011;1382;52.142;11.618;2022-12-07T13:10:33;3.63;;;1.50;;
2748;SDS011;1382;52.142;11.618;2022-12-07T13:22:40;2.87;;;1.20;;
2748;SDS011;1382;52.142;11.618;2022-12-07T13:25:19;2.30;;;0.80;;
2748;SDS011;1382;52.142;11.618;2022-12-07T13:27:55;1.50;;;1.07;;
2748;SDS011;1382;52.142;11.618;2022-12-07T13:30:26;4.20;;;1.80;;
2748;SDS011;1382;52.142;11.618;2022-12-07T13:32:56;2.80;;;0.77;;
2748;SDS011;1382;52.142;11.618;2022-12-07T13:35:31;5.80;;;1.30;;
2748;SDS011;1382;52.142;11.618;2022-12-07T13:38:01;4.80;;;1.30;;
2748;SDS011;1382;52.142;11.618;2022-12-07T13:40:32;4.90;;;1.23;;
2748;SDS011;1382;52.142;11.618;2022-12-07T13:43:00;1.53;;;0.80;;
2748;SDS011;1382;52.142;11.618;2022-12-07T13:45:41;4.10;;;1.50;;
2748;SDS011;1382;52.142;11.618;2022-12-07T13:48:08;4.43;;;1.60;;
2748;SDS011;1382;52.142;11.618;2022-12-07T13:50:40;6.53;;;1.73;;
2748;SDS011;1382;52.142;11.618;2022-12-07T13:53:10;5.37;;;2.97;;
2748;SDS011;1382;52.142;11.618;2022-12-07T13:55:45;9.90;;;2.70;;
2748;SDS011;1382;52.142;11.618;2022-12-07T13:58:19;2.03;;;1.80;;
2748;SDS011;1382;52.142;11.618;2022-12-07T14:00:47;4.37;;;2.47;;
2748;SDS011;1382;52.142;11.618;2022-12-07T14:03:22;3.17;;;2.00;;
2748;SDS011;1382;52.142;11.618;2022-12-07T14:06:13;4.63;;;2.07;;
2748;SDS011;1382;52.142;11.618;2022-12-07T14:08:49;7.20;;;2.93;;
2748;SDS011;1382;52.142;11.618;2022-12-07T14:11:28;8.70;;;2.57;;
2748;SDS011;1382;52.142;11.618;2022-12-07T14:13:56;6.03;;;3.40;;
2748;SDS011;1382;52.142;11.618;2022-12-07T14:16:26;5.87;;;3.27;;
2748;SDS011;1382;52.142;11.618;2022-12-07T14:18:55;4.00;;;2.70;;
2748;SDS011;1382;52.142;11.618;2022-12-07T14:21:23;6.77;;;2.67;;
2748;SDS011;1382;52.142;11.618;2022-12-07T14:24:11;12.00;;;3.57;;
2748;SDS011;1382;52.142;11.618;2022-12-07T14:26:43;5.30;;;3.27;;
2748;SDS011;1382;52.142;11.618;2022-12-07T14:29:30;3.40;;;3.07;;
2748;SDS011;1382;52.142;11.618;2022-12-07T14:32:04;8.03;;;3.00;;
2748;SDS011;1382;52.142;11.618;2022-12-07T14:34:53;9.10;;;3.50;;
2748;SDS011;1382;52.142;11.618;2022-12-07T14:37:21;5.07;;;2.70;;
2748;SDS011;1382;52.142;11.618;2022-12-07T14:39:47;5.70;;;3.50;;
2748;SDS011;1382;52.142;11.618;2022-12-07T14:42:16;6.50;;;3.10;;
2748;SDS011;1382;52.142;11.618;2022-12-07T14:44:43;4.57;;;2.83;;
2748;SDS011;1382;52.142;11.618;2022-12-07T14:47:10;5.90;;;3.53;;
2748;SDS011;1382;52.142;11.618;2022-12-07T14:49:57;5.03;;;2.77;;
2748;SDS011;1382;52.142;11.618;2022-12-07T14:52:30;3.83;;;1.83;;
2748;SDS011;1382;52.142;11.618;2022-12-07T14:55:21;6.47;;;2.47;;
2748;SDS011;1382;52.142;11.618;2022-12-07T14:57:51;6.70;;;2.87;;
2748;SDS011;1382;52.142;11.618;2022-12-07T15:00:19;8.53;;;2.40;;
2748;SDS011;1382;52.142;11.618;2022-12-07T15:02:47;5.27;;;2.87;;
2748;SDS011;1382;52.142;11.618;2022-12-07T15:05:14;5.83;;;2.30;;
2748;SDS011;1382;52.142;11.618;2022-12-07T15:07:43;5.67;;;2.63;;
2748;SDS011;1382;52.142;11.618;2022-12-07T15:10:13;2.10;;;1.90;;
2748;SDS011;1382;52.142;11.618;2022-12-07T15:12:49;5.43;;;2.03;;
2748;SDS011;1382;52.142;11.618;2022-12-07T15:15:17;3.00;;;1.53;;
2748;SDS011;1382;52.142;11.618;2022-12-07T15:17:44;6.57;;;2.47;;
2748;SDS011;1382;52.142;11.618;2022-12-07T15:20:12;5.20;;;1.93;;
2748;SDS011;1382;52.142;11.618;2022-12-07T15:22:40;2.63;;;1.73;;
2748;SDS011;1382;52.142;11.618;2022-12-07T15:25:08;12.53;;;2.50;;
2748;SDS011;1382;52.142;11.618;2022-12-07T15:27:38;4.37;;;1.83;;
2748;SDS011;1382;52.142;11.618;2022-12-07T15:30:05;5.87;;;2.97;;
2748;SDS011;1382;52.142;11.618;2022-12-07T15:32:34;6.67;;;3.00;;
2748;SDS011;1382;52.142;11.618;2022-12-07T15:35:01;6.37;;;3.40;;
2748;SDS011;1382;52.142;11.618;2022-12-07T15:37:28;6.50;;;3.30;;
2748;SDS011;1382;52.142;11.618;2022-12-07T15:39:55;6.73;;;2.77;;